Time;durP1;ratioP1;P1;durP2;ratioP2;P2;SDS_P1;SDS_P2;PMS_P1;PMS_P2;Temp;Humidity;BMP_temperature;BMP_pressure;BME280_temperature;BME280_humidity;BME280_pressure;Samples;Min_cycle;Max_cycle;Signal;HPM_P1;HPM_P2
2022/09/09 00:01:38;;;;;;;3.20;0.80;;;24.10;45.40;;;;;;6253605;28;20056;-80
2022/09/09 00:04:40;;;;;;;4.13;0.60;;;24.10;45.50;;;;;;6274544;28;20055;-81
2022/09/09 00:07:45;;;;;;;0.70;0.47;;;24.00;45.50;;;;;;6264003;28;20028;-82
2022/09/09 00:10:54;;;;;;;1.83;0.90;;;24.00;45.70;;;;;;6249432;28;20053;-81
2022/09/09 00:13:59;;;;;;;1.88;0.60;;;24.00;45.80;;;;;;6254014;28;20041;-81
2022/09/09 00:17:14;;;;;;;0.80;0.55;;;24.00;45.90;;;;;;6241538;28;20045;-81
2022/09/09 00:20:29;;;;;;;0.85;0.60;;;24.00;46.10;;;;;;6260009;28;20057;-81
2022/09/09 00:23:36;;;;;;;1.80;0.60;;;23.90;46.20;;;;;;6252015;28;20087;-82
2022/09/09 00:26:51;;;;;;;4.85;0.60;;;23.80;46.50;;;;;;6264140;28;20029;-81
2022/09/09 00:30:18;;;;;;;1.88;0.70;;;23.70;46.80;;;;;;6255541;28;20060;-80
2022/09/09 00:33:22;;;;;;;4.57;0.73;;;23.70;46.90;;;;;;6280801;28;20033;-82
2022/09/09 00:36:26;;;;;;;5.38;0.85;;;23.60;47.10;;;;;;6251141;28;20092;-81
2022/09/09 00:39:51;;;;;;;0.88;0.57;;;23.50;47.30;;;;;;6248540;28;20051;-81
2022/09/09 00:43:32;;;;;;;3.70;0.60;;;23.40;47.30;;;;;;6253837;28;20144;-82
2022/09/09 00:46:56;;;;;;;3.88;0.90;;;23.40;47.30;;;;;;6232214;28;20037;-82
2022/09/09 00:50:01;;;;;;;2.45;0.70;;;23.40;47.50;;;;;;6246756;28;20045;-82
2022/09/09 00:53:03;;;;;;;1.40;0.77;;;23.40;47.40;;;;;;6235586;28;20057;-82
2022/09/09 00:56:14;;;;;;;2.83;0.77;;;23.40;47.50;;;;;;6263659;28;20138;-83
2022/09/09 00:59:32;;;;;;;3.83;1.00;;;23.40;47.50;;;;;;6249361;28;20029;-82
2022/09/09 01:02:47;;;;;;;3.20;1.00;;;23.40;47.50;;;;;;6266828;28;20051;-82
2022/09/09 01:06:34;;;;;;;5.63;0.90;;;23.50;47.60;;;;;;6273413;28;20029;-82
2022/09/09 01:09:58;;;;;;;5.35;1.20;;;23.40;47.60;;;;;;6258818;28;20032;-82
2022/09/09 01:13:10;;;;;;;1.17;0.68;;;23.40;47.70;;;;;;6277163;28;20052;-82
2022/09/09 01:16:12;;;;;;;5.82;1.08;;;23.40;47.80;;;;;;6271565;28;20070;-82
2022/09/09 01:19:25;;;;;;;1.17;0.82;;;23.40;48.00;;;;;;6249773;28;20044;-81
2022/09/09 01:23:18;;;;;;;2.95;0.65;;;23.30;48.10;;;;;;6266098;28;20033;-82
2022/09/09 01:26:42;;;;;;;2.13;0.73;;;23.30;48.20;;;;;;6267801;28;20032;-80
2022/09/09 01:29:51;;;;;;;1.98;0.88;;;23.30;48.20;;;;;;6286711;28;20128;-81
2022/09/09 01:33:00;;;;;;;2.03;1.00;;;23.30;48.20;;;;;;6278174;28;20159;-82
2022/09/09 01:36:04;;;;;;;;;;;23.20;48.30;;;;;;6262673;28;20040;-81
2022/09/09 01:39:11;;;;;;;;;;;23.30;48.40;;;;;;6279476;28;19923;-81
2022/09/09 01:42:16;;;;;;;3.45;1.00;;;23.30;48.50;;;;;;6275453;28;21518;-81
2022/09/09 01:45:21;;;;;;;4.57;0.95;;;23.30;48.60;;;;;;6296721;28;20060;-82
2022/09/09 01:48:24;;;;;;;3.75;0.85;;;23.20;48.60;;;;;;6275561;28;20047;-81
2022/09/09 01:51:38;;;;;;;5.35;0.98;;;23.20;48.90;;;;;;6288316;28;20139;-81
2022/09/09 01:54:42;;;;;;;5.20;0.82;;;23.20;49.30;;;;;;6279079;28;20092;-81
2022/09/09 01:58:31;;;;;;;2.88;0.75;;;23.10;49.50;;;;;;6297977;28;20069;-81
2022/09/09 02:01:46;;;;;;;3.08;1.15;;;23.00;50.30;;;;;;6268226;28;20041;-81
2022/09/09 02:04:50;;;;;;;2.42;0.70;;;23.00;50.70;;;;;;6250590;28;20057;-81
2022/09/09 02:08:05;;;;;;;9.10;1.15;;;22.90;51.00;;;;;;6241678;28;20047;-81
2022/09/09 02:11:19;;;;;;;8.05;1.15;;;22.90;51.30;;;;;;6299379;28;20049;-82
2022/09/09 02:14:38;;;;;;;6.13;1.05;;;22.80;51.50;;;;;;6263071;28;20040;-81
2022/09/09 02:17:42;;;;;;;2.90;0.90;;;22.80;52.00;;;;;;6273048;28;20033;-81
2022/09/09 02:20:51;;;;;;;6.68;1.30;;;22.80;52.40;;;;;;6263858;28;20049;-81
2022/09/09 02:23:53;;;;;;;6.30;1.10;;;22.70;52.50;;;;;;6275400;28;20039;-82
2022/09/09 02:26:56;;;;;;;2.97;1.27;;;22.70;52.70;;;;;;6261863;28;20034;-81
2022/09/09 02:30:01;;;;;;;9.35;1.02;;;22.70;53.00;;;;;;6300840;28;20037;-82
2022/09/09 02:33:16;;;;;;;3.20;1.20;;;22.70;53.10;;;;;;6289417;28;20104;-82
2022/09/09 02:36:23;;;;;;;0.80;0.80;;;22.70;53.40;;;;;;6277979;28;20184;-81
2022/09/09 02:39:24;;;;;;;4.63;0.93;;;22.60;53.70;;;;;;6265382;28;20116;-81
2022/09/09 02:42:27;;;;;;;6.13;0.95;;;22.60;54.10;;;;;;6265531;28;20041;-81
2022/09/09 02:45:42;;;;;;;1.90;1.10;;;22.50;54.40;;;;;;6266750;28;20331;-81
2022/09/09 02:48:57;;;;;;;3.22;1.30;;;22.40;54.80;;;;;;6278046;28;20098;-81
2022/09/09 02:52:22;;;;;;;3.25;1.10;;;22.40;55.00;;;;;;6286652;28;20035;-81
2022/09/09 02:55:25;;;;;;;2.05;0.80;;;22.30;55.10;;;;;;6274418;28;20478;-82
2022/09/09 02:58:30;;;;;;;1.35;0.85;;;22.30;55.20;;;;;;6273945;28;20093;-81
2022/09/09 03:01:36;;;;;;;3.90;1.00;;;22.20;55.30;;;;;;6261143;28;20094;-81
2022/09/09 03:04:38;;;;;;;1.17;1.00;;;22.20;55.40;;;;;;6287073;28;20041;-81
2022/09/09 03:07:40;;;;;;;1.48;0.88;;;22.20;55.40;;;;;;6256811;28;20087;-82
2022/09/09 03:10:41;;;;;;;12.73;1.17;;;22.20;55.60;;;;;;6294663;28;20369;-81
2022/09/09 03:13:42;;;;;;;1.63;0.93;;;22.10;55.70;;;;;;6260818;28;20037;-81
2022/09/09 03:16:46;;;;;;;4.13;1.00;;;22.10;55.60;;;;;;6255962;28;20029;-83
2022/09/09 03:19:49;;;;;;;4.65;0.80;;;22.10;55.50;;;;;;6286485;28;20473;-81
2022/09/09 03:22:50;;;;;;;5.10;1.15;;;22.10;55.30;;;;;;6285003;28;20032;-81
2022/09/09 03:25:52;;;;;;;1.65;1.00;;;22.10;55.20;;;;;;6264356;28;20072;-83
2022/09/09 03:29:00;;;;;;;1.83;0.82;;;22.00;55.10;;;;;;6256445;28;20049;-81
2022/09/09 03:32:02;;;;;;;4.05;1.10;;;22.00;55.00;;;;;;6278583;28;20033;-81
2022/09/09 03:35:04;;;;;;;1.80;0.85;;;21.90;54.90;;;;;;6248109;28;20049;-83
2022/09/09 03:38:05;;;;;;;2.60;0.90;;;21.90;54.80;;;;;;6231483;28;20133;-82
2022/09/09 03:41:08;;;;;;;2.35;0.90;;;21.90;54.70;;;;;;6251598;28;20065;-83
2022/09/09 03:44:12;;;;;;;1.55;0.90;;;21.90;54.70;;;;;;6272259;28;20090;-82
2022/09/09 03:47:21;;;;;;;1.13;1.00;;;21.80;54.60;;;;;;6256061;28;20045;-81
2022/09/09 03:50:24;;;;;;;1.25;1.00;;;21.80;54.60;;;;;;6259293;28;20034;-82
2022/09/09 03:53:27;;;;;;;1.95;0.85;;;21.70;54.60;;;;;;6250356;28;20040;-81
2022/09/09 03:56:28;;;;;;;3.30;1.23;;;21.70;54.60;;;;;;6239992;28;20475;-82
2022/09/09 03:59:30;;;;;;;1.85;0.80;;;21.70;54.50;;;;;;6253620;28;20034;-82
2022/09/09 04:02:31;;;;;;;2.55;1.17;;;21.70;54.60;;;;;;6252556;28;20378;-82
2022/09/09 04:05:33;;;;;;;1.95;0.98;;;21.70;54.60;;;;;;6256500;28;20064;-82
2022/09/09 04:08:36;;;;;;;3.53;1.10;;;21.70;54.50;;;;;;6262508;28;20037;-82
2022/09/09 04:11:37;;;;;;;4.28;1.15;;;21.80;54.50;;;;;;6283187;28;20036;-82
2022/09/09 04:14:37;;;;;;;1.67;0.98;;;21.70;54.40;;;;;;6271261;28;20037;-83
2022/09/09 04:17:40;;;;;;;2.53;0.90;;;21.80;54.60;;;;;;6261869;28;20462;-82
2022/09/09 04:20:43;;;;;;;3.47;1.17;;;21.80;54.70;;;;;;6258180;28;20053;-82
2022/09/09 04:23:44;;;;;;;7.88;1.52;;;21.80;54.90;;;;;;6262860;28;20033;-83
2022/09/09 04:26:47;;;;;;;5.38;1.05;;;21.70;55.00;;;;;;6275584;28;20089;-82
2022/09/09 04:29:49;;;;;;;0.93;0.80;;;21.70;55.30;;;;;;6256298;28;20353;-81
2022/09/09 04:32:51;;;;;;;2.17;0.90;;;21.60;55.00;;;;;;6280562;28;20067;-82
2022/09/09 04:35:53;;;;;;;9.55;1.30;;;21.60;54.80;;;;;;6254833;28;20041;-82
2022/09/09 04:38:55;;;;;;;4.10;1.27;;;21.60;54.70;;;;;;6249679;28;20056;-82
2022/09/09 04:41:58;;;;;;;4.97;0.77;;;21.50;54.60;;;;;;6255540;28;20044;-81
2022/09/09 04:44:59;;;;;;;1.92;0.98;;;21.50;54.60;;;;;;6256858;28;20052;-81
2022/09/09 04:48:00;;;;;;;9.93;0.93;;;21.40;54.60;;;;;;6269183;28;20120;-81
2022/09/09 04:51:04;;;;;;;10.32;1.27;;;21.40;54.70;;;;;;6275654;28;20033;-81
2022/09/09 04:54:05;;;;;;;6.50;0.80;;;21.40;54.80;;;;;;6273829;28;20033;-81
2022/09/09 04:57:07;;;;;;;1.55;0.70;;;21.40;54.70;;;;;;6263281;28;20034;-82
2022/09/09 05:00:09;;;;;;;3.90;0.80;;;21.30;54.50;;;;;;6244248;28;20029;-81
2022/09/09 05:03:13;;;;;;;5.20;0.90;;;21.40;54.50;;;;;;6283280;28;20041;-81
2022/09/09 05:06:16;;;;;;;7.30;1.45;;;21.40;54.50;;;;;;6278121;28;20044;-81
2022/09/09 05:09:17;;;;;;;1.90;0.93;;;21.40;54.50;;;;;;6306744;28;20036;-81
2022/09/09 05:12:19;;;;;;;1.65;0.93;;;21.40;54.40;;;;;;6296244;28;20530;-82
2022/09/09 05:15:25;;;;;;;2.15;0.70;;;21.40;54.40;;;;;;6289731;28;20088;-83
2022/09/09 05:18:26;;;;;;;6.03;1.23;;;21.40;54.40;;;;;;6266409;28;20044;-83
2022/09/09 05:21:28;;;;;;;1.25;0.85;;;21.30;54.40;;;;;;6251708;28;20037;-83
2022/09/09 05:24:32;;;;;;;3.38;1.17;;;21.30;54.40;;;;;;6257138;28;20045;-82
2022/09/09 05:27:35;;;;;;;3.47;1.10;;;21.40;54.40;;;;;;6265112;28;20095;-82
2022/09/09 05:30:36;;;;;;;1.95;0.95;;;21.30;54.30;;;;;;6289724;28;20384;-81
2022/09/09 05:33:45;;;;;;;1.52;0.73;;;21.40;54.30;;;;;;6296598;28;20064;-83
2022/09/09 05:36:47;;;;;;;2.13;1.23;;;21.30;54.20;;;;;;6278984;28;20458;-82
2022/09/09 05:39:49;;;;;;;3.35;1.10;;;21.30;54.00;;;;;;6262702;28;20041;-83
2022/09/09 05:42:53;;;;;;;2.15;1.42;;;21.30;54.00;;;;;;6234097;28;20103;-83
2022/09/09 05:46:09;;;;;;;3.30;1.40;;;21.30;54.00;;;;;;6252191;28;20128;-82
2022/09/09 05:49:11;;;;;;;2.90;1.40;;;21.30;54.00;;;;;;6252194;28;20127;-83
2022/09/09 05:52:14;;;;;;;7.63;1.70;;;21.30;53.90;;;;;;6264207;28;20115;-83
2022/09/09 05:55:16;;;;;;;3.90;2.03;;;21.20;53.90;;;;;;6231718;28;20061;-83
2022/09/09 05:58:17;;;;;;;11.75;1.80;;;21.20;54.00;;;;;;6264736;28;20044;-78
2022/09/09 06:01:33;;;;;;;1.77;1.02;;;21.20;54.00;;;;;;6271745;28;20378;-78
2022/09/09 06:04:35;;;;;;;8.68;1.45;;;21.20;54.10;;;;;;6275750;28;20036;-78
2022/09/09 06:07:37;;;;;;;11.15;1.60;;;21.20;54.30;;;;;;6291360;28;20041;-78
2022/09/09 06:10:40;;;;;;;4.05;1.40;;;21.20;54.40;;;;;;6275395;28;20041;-77
2022/09/09 06:13:41;;;;;;;5.78;1.77;;;21.20;54.60;;;;;;6291676;28;20052;-77
2022/09/09 06:16:43;;;;;;;9.57;1.65;;;21.20;54.60;;;;;;6283989;28;20044;-78
2022/09/09 06:19:54;;;;;;;4.47;2.00;;;21.10;54.50;;;;;;6278002;28;20365;-79
2022/09/09 06:22:55;;;;;;;5.40;1.88;;;21.10;54.60;;;;;;6274586;28;20053;-79
2022/09/09 06:26:18;;;;;;;8.30;1.95;;;21.10;54.70;;;;;;6262313;28;20029;-79
2022/09/09 06:29:20;;;;;;;3.63;1.52;;;21.10;54.60;;;;;;6280100;28;20055;-78
2022/09/09 06:32:26;;;;;;;4.75;1.85;;;21.10;54.50;;;;;;6287533;28;20117;-81
2022/09/09 06:35:29;;;;;;;12.98;1.70;;;21.20;54.50;;;;;;6269633;28;20052;-77
2022/09/09 06:38:30;;;;;;;5.78;1.50;;;21.20;54.40;;;;;;6258793;28;20040;-78
2022/09/09 06:41:32;;;;;;;2.97;1.15;;;21.20;54.40;;;;;;6292409;28;20465;-79
2022/09/09 06:44:36;;;;;;;3.05;1.20;;;21.30;54.50;;;;;;6280334;28;20033;-78
2022/09/09 06:47:40;;;;;;;2.67;1.25;;;21.30;54.50;;;;;;6259395;28;20045;-78
2022/09/09 06:50:42;;;;;;;9.27;1.45;;;21.30;54.50;;;;;;6283389;28;20032;-79
2022/09/09 06:53:50;;;;;;;4.03;1.30;;;21.30;54.70;;;;;;6248976;28;20060;-79
2022/09/09 06:56:52;;;;;;;3.30;1.38;;;21.30;54.80;;;;;;6265122;28;20482;-78
2022/09/09 06:59:57;;;;;;;6.00;1.35;;;21.40;54.80;;;;;;6267394;28;20037;-80
2022/09/09 07:02:59;;;;;;;12.52;1.50;;;21.40;54.80;;;;;;6252623;28;20042;-77
2022/09/09 07:06:00;;;;;;;2.08;1.30;;;21.40;54.80;;;;;;6243880;28;20060;-79
2022/09/09 07:09:05;;;;;;;6.50;1.40;;;21.40;54.70;;;;;;6238661;28;20362;-79
2022/09/09 07:12:07;;;;;;;12.98;1.70;;;21.40;54.80;;;;;;6256256;28;20394;-79
2022/09/09 07:15:11;;;;;;;3.35;1.20;;;21.50;54.70;;;;;;6248724;28;20064;-79
2022/09/09 07:18:15;;;;;;;5.68;1.15;;;21.60;54.60;;;;;;6272391;28;20044;-80
2022/09/09 07:21:17;;;;;;;8.63;1.50;;;21.80;54.50;;;;;;6276832;28;20040;-78
2022/09/09 07:24:18;;;;;;;7.43;1.38;;;21.90;54.30;;;;;;6292418;28;20060;-78
2022/09/09 07:27:19;;;;;;;9.80;1.25;;;22.00;54.10;;;;;;6275113;28;20062;-78
2022/09/09 07:30:22;;;;;;;3.42;1.45;;;22.10;53.80;;;;;;6272756;28;20094;-79
2022/09/09 07:33:25;;;;;;;8.35;1.58;;;22.10;53.60;;;;;;6270178;28;20095;-78
2022/09/09 07:36:32;;;;;;;2.20;1.23;;;22.20;53.70;;;;;;6265930;28;20637;-78
2022/09/09 07:39:33;;;;;;;3.13;1.30;;;22.20;53.60;;;;;;6286675;28;20375;-78
2022/09/09 07:42:37;;;;;;;8.98;1.52;;;22.30;53.50;;;;;;6291800;28;20049;-79
2022/09/09 07:45:38;;;;;;;2.80;1.48;;;22.40;53.30;;;;;;6273130;28;20536;-79
2022/09/09 07:48:44;;;;;;;6.60;1.95;;;22.50;53.20;;;;;;6283703;28;20029;-79
2022/09/09 07:51:47;;;;;;;12.95;1.85;;;22.70;53.00;;;;;;6253112;28;20363;-79
2022/09/09 07:54:50;;;;;;;3.70;1.50;;;22.80;52.90;;;;;;6285008;28;20365;-79
2022/09/09 07:57:52;;;;;;;2.88;1.48;;;22.80;52.70;;;;;;6287978;28;20067;-79
2022/09/09 08:00:55;;;;;;;9.68;1.60;;;23.00;52.50;;;;;;6257478;28;20037;-79
2022/09/09 08:04:03;;;;;;;3.25;1.40;;;23.10;52.40;;;;;;6272890;28;20037;-79
2022/09/09 08:07:05;;;;;;;7.10;1.67;;;23.20;52.00;;;;;;6271439;28;20038;-78
2022/09/09 08:10:14;;;;;;;5.88;1.38;;;23.30;51.80;;;;;;6260696;28;20056;-79
2022/09/09 08:13:18;;;;;;;3.30;1.33;;;23.40;51.50;;;;;;6255748;28;20029;-79
2022/09/09 08:16:29;;;;;;;3.97;1.23;;;23.60;51.00;;;;;;6256500;28;20523;-79
2022/09/09 08:19:33;;;;;;;5.57;1.25;;;23.80;50.60;;;;;;6253105;28;20523;-78
2022/09/09 08:22:37;;;;;;;4.60;1.00;;;23.90;50.40;;;;;;6256758;28;20049;-79
2022/09/09 08:25:38;;;;;;;2.53;0.93;;;24.10;49.80;;;;;;6266631;28;20098;-79
2022/09/09 08:28:40;;;;;;;7.97;1.10;;;24.10;49.30;;;;;;6247547;28;20034;-79
2022/09/09 08:31:51;;;;;;;7.50;1.52;;;24.30;49.30;;;;;;6248367;28;20572;-79
2022/09/09 08:34:52;;;;;;;3.95;0.98;;;24.40;49.20;;;;;;6246633;28;20060;-79
2022/09/09 08:37:57;;;;;;;2.53;1.13;;;24.50;49.00;;;;;;6260093;28;20199;-78
2022/09/09 08:41:16;;;;;;;5.30;1.05;;;24.60;48.50;;;;;;6245077;28;20121;-78
2022/09/09 08:44:32;;;;;;;2.13;0.90;;;24.70;48.00;;;;;;6262942;28;20033;-78
2022/09/09 08:48:07;;;;;;;4.93;1.20;;;24.70;47.70;;;;;;6270393;28;20049;-78
2022/09/09 08:51:08;;;;;;;4.45;1.15;;;24.70;47.80;;;;;;6262464;28;20490;-78
2022/09/09 08:54:12;;;;;;;14.65;1.50;;;24.80;47.70;;;;;;6259985;28;20469;-79
2022/09/09 08:57:19;;;;;;;2.83;0.90;;;25.00;47.60;;;;;;6266032;28;20139;-79
2022/09/09 09:00:21;;;;;;;1.55;0.73;;;25.10;47.30;;;;;;6268413;28;20098;-79
2022/09/09 09:03:33;;;;;;;6.03;1.02;;;25.30;47.00;;;;;;6268012;28;20055;-79
2022/09/09 09:06:52;;;;;;;1.70;0.73;;;25.50;46.50;;;;;;6259724;28;20033;-78
2022/09/09 09:10:09;;;;;;;4.05;1.13;;;25.60;46.20;;;;;;6245954;28;20486;-79
2022/09/09 09:13:26;;;;;;;7.50;0.98;;;25.70;45.30;;;;;;6247331;28;20041;-79
2022/09/09 09:16:51;;;;;;;2.67;0.75;;;25.90;44.60;;;;;;6263428;28;20041;-78
2022/09/09 09:19:52;;;;;;;1.23;0.60;;;26.00;42.70;;;;;;6277549;28;20438;-79
2022/09/09 09:22:56;;;;;;;2.88;0.70;;;26.10;41.30;;;;;;6248159;28;20705;-79
2022/09/09 09:26:00;;;;;;;5.97;0.88;;;26.20;40.60;;;;;;6236331;28;20029;-78
2022/09/09 09:29:15;;;;;;;1.95;0.47;;;26.30;40.00;;;;;;6259376;28;20095;-80
2022/09/09 09:32:20;;;;;;;7.78;0.90;;;26.40;39.10;;;;;;6250896;28;20811;-78
2022/09/09 09:35:21;;;;;;;3.70;0.40;;;26.50;38.90;;;;;;6267438;28;20531;-78
2022/09/09 09:38:24;;;;;;;1.27;0.50;;;26.60;38.70;;;;;;6254706;28;20037;-79
2022/09/09 09:41:41;;;;;;;3.00;0.70;;;26.60;38.00;;;;;;6263953;28;20040;-80
2022/09/09 09:44:43;;;;;;;1.77;0.50;;;26.60;37.70;;;;;;6261268;28;20107;-80
2022/09/09 09:48:05;;;;;;;1.70;0.60;;;26.70;37.60;;;;;;6265500;28;20048;-78
2022/09/09 09:51:13;;;;;;;3.05;0.80;;;26.70;37.50;;;;;;6247851;28;20102;-79
2022/09/09 09:54:24;;;;;;;3.22;0.70;;;26.70;37.30;;;;;;6266012;28;20033;-77
2022/09/09 09:57:32;;;;;;;4.05;0.57;;;26.80;36.70;;;;;;6254160;28;20051;-79
2022/09/09 10:00:49;;;;;;;1.17;0.70;;;26.70;36.50;;;;;;6264217;28;20175;-78
2022/09/09 10:03:52;;;;;;;4.32;0.77;;;26.80;36.50;;;;;;6235541;28;20129;-80
2022/09/09 10:06:53;;;;;;;2.25;0.43;;;26.80;36.50;;;;;;6255137;28;20613;-81
2022/09/09 10:09:57;;;;;;;0.57;0.40;;;26.90;36.30;;;;;;6243241;28;20071;-80
2022/09/09 10:13:12;;;;;;;2.13;0.70;;;26.90;36.20;;;;;;6243026;28;20470;-79
2022/09/09 10:16:33;;;;;;;2.60;1.27;;;27.00;35.90;;;;;;6253506;28;20037;-80
2022/09/09 10:19:36;;;;;;;1.40;0.70;;;27.00;35.80;;;;;;6265765;28;20060;-79
2022/09/09 10:22:43;;;;;;;6.75;0.75;;;27.10;35.60;;;;;;6252177;28;20120;-79
2022/09/09 10:25:55;;;;;;;8.18;0.95;;;27.30;35.50;;;;;;6274928;28;20048;-80
2022/09/09 10:29:17;;;;;;;2.85;0.60;;;27.30;35.30;;;;;;6253654;28;20048;-79
2022/09/09 10:32:51;;;;;;;2.83;0.50;;;27.30;35.30;;;;;;6262122;28;20124;-79
2022/09/09 10:36:13;;;;;;;4.18;0.90;;;27.40;35.10;;;;;;6270849;28;20048;-79
2022/09/09 10:39:14;;;;;;;1.73;0.98;;;27.60;34.90;;;;;;6281886;28;20424;-80
2022/09/09 10:42:18;;;;;;;1.23;0.50;;;27.80;34.60;;;;;;6280319;28;20106;-80
2022/09/09 10:45:33;;;;;;;3.53;0.77;;;28.20;34.20;;;;;;6260791;28;20102;-80
2022/09/09 10:49:29;;;;;;;1.15;0.70;;;28.50;33.90;;;;;;6250153;28;20041;-79
2022/09/09 10:52:48;;;;;;;2.22;0.68;;;28.70;33.50;;;;;;6241069;28;20037;-80
2022/09/09 10:55:55;;;;;;;4.30;1.25;;;28.90;33.10;;;;;;6262565;28;20044;-79
2022/09/09 10:59:09;;;;;;;2.08;0.73;;;29.10;33.00;;;;;;6254061;28;20116;-79
2022/09/09 11:02:22;;;;;;;1.50;0.80;;;29.20;32.50;;;;;;6238587;28;20116;-79
2022/09/09 11:05:49;;;;;;;2.95;0.70;;;29.30;32.30;;;;;;6240118;28;20654;-80
2022/09/09 11:08:52;;;;;;;1.42;0.80;;;29.50;31.90;;;;;;6171918;28;20043;-79
2022/09/09 11:11:56;;;;;;;1.15;0.60;;;29.70;31.70;;;;;;6157307;28;20031;-78
2022/09/09 11:15:22;;;;;;;2.55;0.60;;;29.80;31.20;;;;;;6174952;28;20062;-78
2022/09/09 11:18:23;;;;;;;0.55;0.40;;;29.80;30.80;;;;;;6148664;28;20299;-80
2022/09/09 11:21:36;;;;;;;4.65;0.63;;;29.80;30.90;;;;;;6172536;28;20057;-79
2022/09/09 11:24:41;;;;;;;1.15;0.57;;;29.80;31.10;;;;;;6174013;28;20082;-79
2022/09/09 11:28:06;;;;;;;1.33;0.60;;;30.00;31.00;;;;;;6177532;28;20133;-79
2022/09/09 11:31:26;;;;;;;2.88;0.80;;;30.20;30.50;;;;;;6200166;28;20061;-79
2022/09/09 11:34:42;;;;;;;2.17;0.70;;;30.40;30.20;;;;;;6186845;28;20062;-79
2022/09/09 11:37:45;;;;;;;3.13;0.60;;;30.60;30.00;;;;;;6199390;28;20116;-78
2022/09/09 11:40:47;;;;;;;0.55;0.35;;;30.80;29.60;;;;;;6165353;28;20153;-79
2022/09/09 11:43:51;;;;;;;3.35;0.65;;;31.10;29.40;;;;;;6166356;28;20125;-79
2022/09/09 11:46:52;;;;;;;1.65;0.80;;;31.20;29.10;;;;;;6268660;28;20040;-78
2022/09/09 11:49:53;;;;;;;3.10;0.43;;;31.40;29.00;;;;;;6286554;28;20044;-78
2022/09/09 11:53:13;;;;;;;1.30;0.55;;;31.60;28.80;;;;;;6265786;28;20048;-79
2022/09/09 11:56:28;;;;;;;4.03;0.60;;;31.80;28.60;;;;;;6268669;28;20037;-79
2022/09/09 11:59:31;;;;;;;0.60;0.45;;;32.00;28.30;;;;;;6260352;28;20435;-80
2022/09/09 12:02:32;;;;;;;0.70;0.60;;;32.20;28.00;;;;;;6263404;28;20048;-80
2022/09/09 12:05:44;;;;;;;0.98;0.88;;;32.40;27.70;;;;;;6267613;28;20289;-79
2022/09/09 12:08:50;;;;;;;2.00;0.50;;;32.70;27.40;;;;;;6274945;28;20033;-79
2022/09/09 12:11:51;;;;;;;1.63;0.50;;;33.00;27.10;;;;;;6252811;28;20366;-79
2022/09/09 12:15:09;;;;;;;3.80;0.60;;;33.30;26.70;;;;;;6261707;28;20351;-79
2022/09/09 12:18:22;;;;;;;3.10;1.02;;;33.70;26.10;;;;;;6266802;28;20029;-80
2022/09/09 12:21:49;;;;;;;0.90;0.50;;;34.00;25.40;;;;;;6258208;28;20366;-79
2022/09/09 12:25:15;;;;;;;4.68;0.52;;;34.50;24.90;;;;;;6259378;28;20064;-79
2022/09/09 12:28:20;;;;;;;5.18;0.50;;;35.10;24.30;;;;;;6295643;28;20380;-80
2022/09/09 12:31:38;;;;;;;3.58;0.80;;;35.70;23.50;;;;;;6299271;28;20036;-79
2022/09/09 12:34:44;;;;;;;2.25;0.40;;;36.10;22.90;;;;;;6296592;28;20124;-79
2022/09/09 12:37:50;;;;;;;3.35;0.70;;;36.70;22.20;;;;;;6280117;28;20044;-80
2022/09/09 12:40:57;;;;;;;1.65;0.50;;;37.20;21.70;;;;;;6301314;28;20109;-80
2022/09/09 12:44:09;;;;;;;0.52;0.40;;;37.60;21.00;;;;;;6296091;28;20044;-80
2022/09/09 12:47:13;;;;;;;1.42;0.32;;;38.20;20.60;;;;;;6312556;28;20055;-80
2022/09/09 12:50:21;;;;;;;0.98;0.40;;;38.70;20.20;;;;;;6312199;28;20461;-80
2022/09/09 12:53:34;;;;;;;1.92;0.60;;;39.30;20.40;;;;;;6313186;28;20359;-79
2022/09/09 12:56:36;;;;;;;1.05;0.60;;;39.70;19.40;;;;;;6292934;28;20045;-80
2022/09/09 12:59:51;;;;;;;5.88;0.65;;;40.00;19.00;;;;;;6314965;28;20446;-79
2022/09/09 13:02:56;;;;;;;1.23;0.45;;;40.30;18.90;;;;;;6315341;28;20147;-79
2022/09/09 13:06:09;;;;;;;4.43;0.47;;;40.60;18.50;;;;;;6269144;28;20479;-80
2022/09/09 13:09:11;;;;;;;3.25;0.50;;;41.00;18.00;;;;;;6279894;28;20070;-79
2022/09/09 13:12:20;;;;;;;0.73;0.60;;;41.20;17.60;;;;;;6275845;28;20037;-79
2022/09/09 13:15:27;;;;;;;4.20;0.60;;;41.10;17.40;;;;;;6264512;28;20049;-79
2022/09/09 13:18:34;;;;;;;2.70;0.45;;;41.20;17.40;;;;;;6290038;28;20662;-79
2022/09/09 13:21:37;;;;;;;3.50;0.60;;;41.20;17.10;;;;;;6287927;28;20052;-80
2022/09/09 13:24:38;;;;;;;1.45;0.43;;;40.90;17.30;;;;;;6280800;28;20032;-80
2022/09/09 13:27:53;;;;;;;0.98;0.57;;;41.10;17.30;;;;;;6257565;28;20361;-79
2022/09/09 13:31:20;;;;;;;1.40;0.30;;;41.40;16.90;;;;;;6258339;28;20044;-80
2022/09/09 13:34:33;;;;;;;3.63;0.67;;;41.70;16.80;;;;;;6261480;28;20037;-79
2022/09/09 13:37:41;;;;;;;6.53;0.60;;;41.80;16.40;;;;;;6277721;28;20270;-78
2022/09/09 13:40:57;;;;;;;2.85;0.45;;;41.90;16.40;;;;;;6262839;28;20101;-78
2022/09/09 13:43:59;;;;;;;1.60;0.63;;;41.60;16.30;;;;;;6253499;28;20040;-79
2022/09/09 13:47:16;;;;;;;0.85;0.32;;;40.70;16.70;;;;;;6248190;28;20068;-79
2022/09/09 13:50:27;;;;;;;;;;;39.50;17.50;;;;;;6250684;28;20105;-79
2022/09/09 13:53:28;;;;;;;0.80;0.38;;;38.20;18.30;;;;;;6245948;28;19913;-79
2022/09/09 13:56:29;;;;;;;3.72;0.77;;;37.00;18.90;;;;;;6249419;28;20330;-79
2022/09/09 13:59:31;;;;;;;4.68;0.50;;;35.90;19.40;;;;;;6250518;28;20103;-80
2022/09/09 14:02:33;;;;;;;0.70;0.30;;;35.00;19.90;;;;;;6253164;28;20037;-79
2022/09/09 14:05:34;;;;;;;0.77;0.40;;;34.40;20.40;;;;;;6249387;28;20452;-79
2022/09/09 14:08:36;;;;;;;0.80;0.50;;;33.80;20.70;;;;;;6260663;28;20048;-79
2022/09/09 14:11:38;;;;;;;0.70;0.40;;;33.30;21.20;;;;;;6254060;28;20371;-78
2022/09/09 14:14:39;;;;;;;5.55;0.50;;;32.90;21.50;;;;;;6266625;28;20335;-78
2022/09/09 14:17:40;;;;;;;1.02;0.70;;;32.40;21.70;;;;;;6279675;28;20047;-78
2022/09/09 14:20:41;;;;;;;0.60;0.40;;;32.20;21.90;;;;;;6258521;28;20410;-78
2022/09/09 14:23:42;;;;;;;2.10;0.47;;;31.90;22.00;;;;;;6251853;28;20047;-80
2022/09/09 14:26:43;;;;;;;1.92;0.52;;;31.80;21.90;;;;;;6270847;28;20037;-80
2022/09/09 14:29:44;;;;;;;0.95;0.40;;;31.60;21.90;;;;;;6254980;28;20116;-80
2022/09/09 14:32:45;;;;;;;2.33;0.63;;;31.40;21.90;;;;;;6275495;28;20037;-79
2022/09/09 14:35:45;;;;;;;3.53;0.50;;;31.30;22.00;;;;;;6245410;28;20088;-79
2022/09/09 14:38:47;;;;;;;4.57;0.30;;;31.10;22.10;;;;;;6253603;28;20041;-79
2022/09/09 14:41:47;;;;;;;0.77;0.35;;;31.10;22.10;;;;;;6272092;28;20047;-79
2022/09/09 14:44:48;;;;;;;0.22;0.22;;;30.90;22.10;;;;;;6265261;28;20033;-80
2022/09/09 14:47:50;;;;;;;1.85;0.35;;;30.80;22.10;;;;;;6250357;28;20041;-80
2022/09/09 14:50:50;;;;;;;1.95;0.40;;;30.80;22.00;;;;;;6258035;28;20041;-80
2022/09/09 14:53:53;;;;;;;1.40;0.40;;;30.80;21.90;;;;;;6251585;28;20102;-78
2022/09/09 14:56:54;;;;;;;0.57;0.30;;;30.80;21.70;;;;;;6245734;28;20470;-78
2022/09/09 14:59:54;;;;;;;0.80;0.22;;;30.70;21.70;;;;;;6232503;28;20048;-79
2022/09/09 15:02:56;;;;;;;0.50;0.30;;;30.60;21.70;;;;;;6263794;28;20041;-80
2022/09/09 15:05:58;;;;;;;0.90;0.50;;;30.60;21.70;;;;;;6268024;28;20045;-80
2022/09/09 15:09:00;;;;;;;2.55;0.43;;;30.50;21.70;;;;;;6239712;28;20049;-79
2022/09/09 15:12:01;;;;;;;2.58;0.40;;;30.50;21.70;;;;;;6261040;28;20043;-79
2022/09/09 15:15:03;;;;;;;1.17;0.50;;;30.50;22.20;;;;;;6288651;28;20132;-79
2022/09/09 15:18:04;;;;;;;1.85;0.47;;;30.40;21.70;;;;;;6259055;28;20063;-79
2022/09/09 15:21:05;;;;;;;1.02;0.40;;;30.40;22.30;;;;;;6252132;28;20037;-79
2022/09/09 15:24:08;;;;;;;2.33;0.68;;;30.30;21.80;;;;;;6270400;28;20495;-78
2022/09/09 15:27:08;;;;;;;1.55;0.30;;;30.30;22.00;;;;;;6247726;28;20030;-79
2022/09/09 15:30:10;;;;;;;2.03;0.30;;;30.40;21.90;;;;;;6254140;28;20541;-79
2022/09/09 15:33:11;;;;;;;0.55;0.40;;;30.50;21.90;;;;;;6248755;28;20040;-80
2022/09/09 15:36:20;;;;;;;1.20;0.60;;;30.50;21.80;;;;;;6247983;28;20049;-78
2022/09/09 15:39:21;;;;;;;2.67;0.40;;;30.50;21.90;;;;;;6252480;28;20507;-79
2022/09/09 15:42:22;;;;;;;1.58;0.43;;;30.50;21.90;;;;;;6252974;28;20213;-79
2022/09/09 15:45:23;;;;;;;0.50;0.40;;;30.50;22.00;;;;;;6266244;28;20532;-79
2022/09/09 15:48:33;;;;;;;2.53;0.50;;;30.40;22.20;;;;;;6290904;28;20056;-78
2022/09/09 15:51:37;;;;;;;0.55;0.30;;;30.30;22.30;;;;;;6278820;28;20116;-79
2022/09/09 15:54:38;;;;;;;3.38;0.35;;;30.30;22.40;;;;;;6277820;28;20032;-78
2022/09/09 15:57:40;;;;;;;3.95;0.50;;;30.30;22.40;;;;;;6267172;28;20045;-78
2022/09/09 16:00:41;;;;;;;1.67;0.32;;;30.40;22.40;;;;;;6269488;28;20355;-79
2022/09/09 16:03:45;;;;;;;1.42;0.52;;;30.50;22.40;;;;;;6262045;28;20048;-79
2022/09/09 16:06:46;;;;;;;1.00;0.45;;;30.60;22.30;;;;;;6268463;28;20119;-78
2022/09/09 16:09:47;;;;;;;3.45;0.68;;;30.80;22.40;;;;;;6267404;28;20052;-79
2022/09/09 16:12:49;;;;;;;3.03;0.55;;;31.50;22.30;;;;;;6271714;28;20037;-78
2022/09/09 16:15:56;;;;;;;28.88;17.98;;;33.00;21.40;;;;;;6293579;28;20112;-79